createdAt,value
2018-09-12T13:54:10.822Z,4740.00
2018-09-12T13:55:10.768Z,7028.00
2018-09-12T13:56:10.740Z,6748.00
2018-09-12T13:57:12.306Z,6780.00
2018-09-12T13:58:10.689Z,6780.00
2018-09-12T13:59:10.663Z,5976.00
2018-09-12T14:00:10.881Z,5660.00
2018-09-12T14:01:10.612Z,6348.00
2018-09-12T14:02:10.594Z,6364.00
2018-09-12T14:03:10.666Z,6320.00
2018-09-12T14:04:10.546Z,6740.00
2018-09-12T14:05:10.511Z,6280.00
2018-09-12T14:06:10.486Z,5772.00
2018-09-12T14:07:10.472Z,5440.00
2018-09-12T14:08:10.449Z,5956.00
2018-09-12T14:09:10.409Z,5568.00
2018-09-12T14:10:10.384Z,4976.00
2018-09-12T14:11:10.359Z,4684.00
2018-09-12T14:12:10.332Z,4740.00
2018-09-12T14:13:10.306Z,4588.00
2018-09-12T14:14:10.283Z,4228.00
2018-09-12T14:15:10.254Z,4584.00
2018-09-12T14:16:10.235Z,4580.00
2018-09-12T14:17:10.200Z,4780.00
2018-09-12T14:18:10.178Z,4840.00
2018-09-12T14:19:10.154Z,4980.00
2018-09-12T14:20:10.125Z,5108.00
2018-09-12T14:21:10.098Z,4692.00
2018-09-12T14:22:10.076Z,4568.00
2018-09-12T14:23:10.057Z,4588.00
2018-09-12T14:24:10.024Z,4812.00
2018-09-12T14:25:10.062Z,4748.00
2018-09-12T14:26:09.965Z,4828.00
2018-09-12T14:27:09.943Z,5184.00
2018-09-12T14:28:09.919Z,5420.00
2018-09-12T14:29:09.889Z,5076.00
2018-09-12T14:30:09.864Z,4476.00
2018-09-12T14:31:09.838Z,4140.00
2018-09-12T14:32:10.567Z,4372.00
2018-09-12T14:33:09.784Z,4520.00
2018-09-12T14:34:09.758Z,4436.00
2018-09-12T14:35:09.859Z,4216.00
2018-09-12T14:36:09.712Z,4096.00
2018-09-12T14:37:09.676Z,4040.00
2018-09-12T14:38:09.650Z,3948.00
2018-09-12T14:39:09.714Z,3880.00
2018-09-12T14:40:09.597Z,3784.00
2018-09-12T14:41:09.570Z,3716.00
2018-09-12T14:42:09.559Z,3684.00
2018-09-12T14:43:09.509Z,3604.00
2018-09-12T14:44:09.495Z,3568.00
2018-09-12T14:45:09.491Z,3376.00
2018-09-12T14:46:09.435Z,3252.00
2018-09-12T14:47:09.409Z,3272.00
2018-09-12T14:48:09.383Z,3300.00
2018-09-12T14:49:09.353Z,3216.00
2018-09-12T14:50:09.325Z,3232.00
2018-09-12T14:51:09.297Z,3228.00
2018-09-12T14:52:10.031Z,3204.00
2018-09-12T14:53:09.272Z,3168.00
2018-09-12T14:54:09.239Z,3204.00
2018-09-12T14:55:09.190Z,3256.00
2018-09-12T14:56:09.157Z,3292.00
2018-09-12T14:57:09.139Z,3232.00
2018-09-12T14:58:09.109Z,3240.00
2018-09-12T14:59:09.074Z,3212.00
2018-09-12T15:00:09.053Z,3320.00
2018-09-12T15:01:09.027Z,3268.00
2018-09-12T15:02:08.998Z,3288.00
2018-09-12T15:03:08.969Z,3300.00
2018-09-12T15:04:08.977Z,3308.00
2018-09-12T15:05:08.916Z,3284.00
2018-09-12T15:06:08.892Z,3284.00
2018-09-12T15:07:08.876Z,3220.00
2018-09-12T15:08:08.831Z,3208.00
2018-09-12T15:09:08.803Z,3128.00
2018-09-12T15:10:08.775Z,3020.00
2018-09-12T15:11:08.746Z,2924.00
2018-09-12T15:12:08.723Z,2836.00
2018-09-12T15:13:08.688Z,2748.00
2018-09-12T15:14:08.659Z,2676.00
2018-09-12T15:15:08.643Z,2668.00
2018-09-12T15:16:08.604Z,2716.00
2018-09-12T15:17:08.599Z,2668.00
2018-09-12T15:18:08.553Z,2660.00
2018-09-12T15:19:08.540Z,2720.00
2018-09-12T15:20:08.493Z,2912.00
2018-09-12T15:21:08.476Z,3184.00
2018-09-12T15:22:08.453Z,3420.00
2018-09-12T15:23:08.408Z,3644.00
2018-09-12T15:24:08.852Z,3656.00
2018-09-12T15:25:08.361Z,3592.00
2018-09-12T15:26:08.320Z,3404.00
2018-09-12T15:27:08.290Z,3240.00
2018-09-12T15:28:08.266Z,3084.00
2018-09-12T15:29:08.243Z,3008.00
2018-09-12T15:30:08.215Z,2992.00
2018-09-12T15:31:08.182Z,2820.00
2018-09-12T15:32:08.145Z,2624.00
2018-09-12T15:33:08.125Z,2436.00
2018-09-12T15:34:08.095Z,2272.00
2018-09-12T15:35:08.067Z,2136.00
2018-09-12T15:36:08.044Z,2224.00
2018-09-12T15:37:08.029Z,2312.00
2018-09-12T15:38:07.982Z,2280.00
2018-09-12T15:39:07.950Z,2124.00
2018-09-12T15:40:07.928Z,2092.00
2018-09-12T15:41:07.897Z,2176.00
2018-09-12T15:42:07.894Z,2220.00
2018-09-12T15:43:07.834Z,2056.00
2018-09-12T15:44:07.809Z,2032.00
2018-09-12T15:45:07.784Z,1964.00
2018-09-12T15:46:07.777Z,1924.00
2018-09-12T15:47:07.813Z,2104.00
2018-09-12T15:48:07.694Z,2272.00
2018-09-12T15:49:07.665Z,2444.00
2018-09-12T15:50:07.636Z,2564.00
2018-09-12T15:51:07.617Z,2424.00
2018-09-12T15:52:07.579Z,2356.00
2018-09-12T15:53:07.603Z,2108.00
2018-09-12T15:54:07.520Z,1624.00
2018-09-12T15:55:07.490Z,1416.00
2018-09-12T15:56:07.461Z,1412.00
2018-09-12T15:57:07.436Z,1356.00
2018-09-12T15:58:07.450Z,1268.00
2018-09-12T15:59:07.375Z,1420.00
2018-09-12T16:00:07.345Z,1604.00
2018-09-12T16:01:07.336Z,1660.00
2018-09-12T16:02:07.479Z,1776.00
2018-09-12T16:03:07.249Z,1940.00
2018-09-12T16:04:07.229Z,1936.00
2018-09-12T16:05:07.200Z,1928.00
2018-09-12T16:06:07.172Z,1848.00
2018-09-12T16:07:07.139Z,1720.00
2018-09-12T16:08:07.106Z,1912.00
2018-09-12T16:09:07.095Z,2020.00
2018-09-12T16:10:07.051Z,2276.00
2018-09-12T16:11:07.020Z,2264.00
2018-09-12T16:12:06.994Z,2252.00
2018-09-12T16:13:06.963Z,2152.00
2018-09-12T16:14:06.938Z,2068.00
2018-09-12T16:15:06.938Z,1996.00
2018-09-12T16:16:06.876Z,1844.00
2018-09-12T16:17:06.843Z,1968.00
2018-09-12T16:18:06.817Z,1836.00
2018-09-12T16:19:06.880Z,1740.00
2018-09-12T16:20:06.753Z,1684.00
2018-09-12T16:21:06.729Z,1620.00
2018-09-12T16:22:06.704Z,1584.00
2018-09-12T16:23:06.760Z,1588.00
2018-09-12T16:24:06.636Z,1596.00
2018-09-12T16:25:06.615Z,1668.00
2018-09-12T16:26:06.583Z,1712.00
2018-09-12T16:27:06.555Z,1604.00
2018-09-12T16:28:06.562Z,1432.00
2018-09-12T16:29:06.496Z,1436.00
2018-09-12T16:30:06.466Z,1372.00
2018-09-12T16:31:06.432Z,1264.00
2018-09-12T16:32:06.403Z,1252.00
2018-09-12T16:33:06.453Z,1236.00
2018-09-12T16:34:06.346Z,1200.00
2018-09-12T16:35:06.312Z,1168.00
2018-09-12T16:36:06.278Z,1168.00
2018-09-12T16:37:06.273Z,1132.00
2018-09-12T16:38:06.224Z,1112.00
2018-09-12T16:39:06.194Z,1156.00
2018-09-12T16:40:06.223Z,1160.00
2018-09-12T16:41:06.141Z,1084.00
2018-09-12T16:42:06.104Z,1004.00
2018-09-12T16:43:06.090Z,908.00
2018-09-12T16:44:06.065Z,776.00
2018-09-12T16:45:06.018Z,732.00
2018-09-12T16:46:06.006Z,704.00
2018-09-12T16:47:05.951Z,644.00
2018-09-12T16:48:05.924Z,624.00
2018-09-12T16:49:05.895Z,592.00
2018-09-12T16:50:05.862Z,576.00
2018-09-12T16:51:05.834Z,564.00
2018-09-12T16:52:05.796Z,560.00
2018-09-12T16:53:05.775Z,552.00
2018-09-12T16:54:05.978Z,544.00
2018-09-12T16:55:05.705Z,528.00
2018-09-12T16:56:05.743Z,512.00
2018-09-12T16:57:05.664Z,500.00
2018-09-12T16:58:05.616Z,484.00
2018-09-12T16:59:05.592Z,472.00
2018-09-12T17:00:05.571Z,456.00
2018-09-12T17:01:05.522Z,444.00
2018-09-12T17:02:05.505Z,428.00
2018-09-12T17:03:05.462Z,416.00
2018-09-12T17:04:05.444Z,404.00
2018-09-12T17:05:05.424Z,392.00
2018-09-12T17:06:05.379Z,376.00
2018-09-12T17:07:05.348Z,352.00
2018-09-12T17:08:05.325Z,328.00
2018-09-12T17:09:05.287Z,296.00
2018-09-12T17:10:05.256Z,268.00
2018-09-12T17:11:05.238Z,252.00
2018-09-12T17:12:05.191Z,240.00
2018-09-12T17:13:05.183Z,232.00
2018-09-12T17:14:05.171Z,220.00
2018-09-12T17:15:05.140Z,208.00
2018-09-12T17:16:05.073Z,192.00
2018-09-12T17:17:05.045Z,176.00
2018-09-12T17:18:05.013Z,164.00
2018-09-12T17:19:04.981Z,152.00
2018-09-12T17:20:04.980Z,144.00
2018-09-12T17:21:04.921Z,140.00
2018-09-12T17:22:04.883Z,136.00
2018-09-12T17:23:04.859Z,136.00
2018-09-12T17:24:04.824Z,136.00
2018-09-12T17:25:04.790Z,124.00
2018-09-12T17:26:04.765Z,120.00
2018-09-12T17:27:04.747Z,124.00
2018-09-12T17:28:04.708Z,128.00
2018-09-12T17:29:04.675Z,116.00
2018-09-12T17:30:04.643Z,104.00
2018-09-12T17:31:04.618Z,96.00
2018-09-12T17:32:04.579Z,84.00
2018-09-12T17:33:04.553Z,80.00
2018-09-12T17:34:04.522Z,68.00
2018-09-12T17:35:05.193Z,68.00
2018-09-12T17:36:04.458Z,72.00
2018-09-12T17:37:04.436Z,72.00
2018-09-12T17:38:04.396Z,68.00
2018-09-12T17:39:04.388Z,60.00
2018-09-12T17:40:04.336Z,52.00
2018-09-12T17:41:04.427Z,48.00
2018-09-12T17:42:04.443Z,48.00
2018-09-12T17:43:04.246Z,44.00
2018-09-12T17:44:04.202Z,48.00
2018-09-12T17:45:04.180Z,48.00
2018-09-12T17:46:04.151Z,40.00
2018-09-12T17:47:04.525Z,40.00
2018-09-12T17:48:04.079Z,40.00
2018-09-12T17:49:04.059Z,36.00
2018-09-12T17:50:04.018Z,40.00
2018-09-12T17:51:03.993Z,36.00
2018-09-12T17:52:03.969Z,32.00
2018-09-12T17:53:03.935Z,28.00
2018-09-12T17:54:03.902Z,28.00
2018-09-12T17:55:03.873Z,28.00
2018-09-12T17:56:03.927Z,24.00
2018-09-12T17:57:03.812Z,24.00
2018-09-12T17:58:03.770Z,24.00
2018-09-12T17:59:03.784Z,20.00
2018-09-12T18:00:03.763Z,20.00
2018-09-12T18:01:03.686Z,16.00
2018-09-12T18:02:03.654Z,16.00
2018-09-12T18:03:03.619Z,16.00
2018-09-12T18:04:03.605Z,12.00
2018-09-12T18:05:03.563Z,8.00
2018-09-12T18:06:03.535Z,8.00
2018-09-12T18:07:03.511Z,8.00
2018-09-12T18:08:03.472Z,4.00
2018-09-12T18:09:03.439Z,4.00
2018-09-12T18:10:03.409Z,4.00
2018-09-12T18:11:03.525Z,4.00
2018-09-12T18:12:03.345Z,0.00
2018-09-12T18:13:03.308Z,4.00
2018-09-12T18:14:03.281Z,0.00
2018-09-12T18:15:03.251Z,4.00
2018-09-12T18:16:03.222Z,4.00
2018-09-12T18:17:03.190Z,0.00
2018-09-12T18:18:03.162Z,0.00
2018-09-12T18:19:03.129Z,0.00
2018-09-12T18:20:03.096Z,0.00
2018-09-12T18:21:03.074Z,0.00
2018-09-12T18:22:03.031Z,0.00
2018-09-12T18:23:03.002Z,0.00
2018-09-12T18:24:02.975Z,0.00
2018-09-12T18:25:03.899Z,0.00
2018-09-12T18:26:02.912Z,0.00
2018-09-12T18:27:02.881Z,0.00
2018-09-12T18:28:02.849Z,0.00
2018-09-12T18:29:02.834Z,0.00
2018-09-12T18:30:02.795Z,0.00
2018-09-12T18:31:02.747Z,0.00
2018-09-12T18:32:02.724Z,0.00
2018-09-12T18:33:02.716Z,0.00
2018-09-12T18:34:02.665Z,0.00
2018-09-12T18:35:02.632Z,0.00
2018-09-12T18:36:02.658Z,0.00
2018-09-12T18:37:02.577Z,0.00
2018-09-12T18:38:02.541Z,0.00
2018-09-12T18:39:02.508Z,0.00
2018-09-12T18:40:02.477Z,0.00
2018-09-12T18:41:02.444Z,0.00
2018-09-12T18:42:02.428Z,0.00
2018-09-12T18:43:02.453Z,0.00
2018-09-12T18:44:02.367Z,0.00
2018-09-12T18:45:02.324Z,0.00
2018-09-12T18:46:02.292Z,0.00
2018-09-12T18:47:02.258Z,0.00
2018-09-12T18:48:02.241Z,0.00
2018-09-12T18:49:02.194Z,0.00
2018-09-12T18:50:02.177Z,0.00
2018-09-12T18:51:02.133Z,0.00
2018-09-12T18:52:02.102Z,0.00
2018-09-12T18:53:02.070Z,0.00
2018-09-12T18:54:02.081Z,0.00
2018-09-12T18:55:02.010Z,0.00
2018-09-12T18:56:01.979Z,0.00
2018-09-12T18:57:01.946Z,0.00
2018-09-12T18:58:01.913Z,0.00
2018-09-12T18:59:01.893Z,0.00
2018-09-12T19:00:01.847Z,0.00
2018-09-12T19:01:01.818Z,0.00
2018-09-12T19:02:01.789Z,0.00
2018-09-12T19:03:01.759Z,0.00
2018-09-12T19:04:01.730Z,0.00
2018-09-12T19:05:01.699Z,0.00
2018-09-12T19:06:01.666Z,0.00
2018-09-12T19:07:01.764Z,0.00
2018-09-12T19:08:01.620Z,0.00
2018-09-12T19:09:01.566Z,0.00
2018-09-12T19:10:01.551Z,0.00
2018-09-12T19:11:01.523Z,0.00
2018-09-12T19:12:01.478Z,0.00
2018-09-12T19:13:01.532Z,0.00
2018-09-12T19:14:01.421Z,0.00
2018-09-12T19:15:01.385Z,0.00
2018-09-12T19:16:01.352Z,0.00
2018-09-12T19:17:01.326Z,0.00
2018-09-12T19:18:01.290Z,0.00
2018-09-12T19:19:01.265Z,0.00
2018-09-12T19:20:01.229Z,0.00
2018-09-12T19:21:01.207Z,0.00
2018-09-12T19:22:01.168Z,0.00
2018-09-12T19:23:01.136Z,0.00
2018-09-12T19:24:01.684Z,0.00
2018-09-12T19:25:01.075Z,0.00
2018-09-12T19:26:01.061Z,0.00
2018-09-12T19:27:01.006Z,0.00
2018-09-12T19:28:00.981Z,0.00
2018-09-12T19:29:00.949Z,0.00
2018-09-12T19:30:00.911Z,0.00
2018-09-12T19:31:00.885Z,0.00
2018-09-12T19:32:00.851Z,0.00
2018-09-12T19:33:00.825Z,0.00
2018-09-12T19:34:00.794Z,0.00
2018-09-12T19:35:00.765Z,0.00
2018-09-12T19:36:00.870Z,0.00
2018-09-12T19:37:00.695Z,0.00
2018-09-12T19:38:00.669Z,0.00
2018-09-12T19:39:00.629Z,0.00
2018-09-12T19:40:00.600Z,0.00
2018-09-12T19:41:00.574Z,0.00
2018-09-12T19:42:00.597Z,0.00
2018-09-12T19:43:00.518Z,0.00
2018-09-12T19:44:00.472Z,0.00
2018-09-12T19:45:00.455Z,0.00
2018-09-12T19:46:00.421Z,0.00
2018-09-12T19:47:00.388Z,0.00
2018-09-12T19:48:00.432Z,0.00
2018-09-12T19:49:00.365Z,0.00
2018-09-12T19:50:00.290Z,0.00
2018-09-12T19:51:00.276Z,0.00
2018-09-12T19:52:00.230Z,0.00
2018-09-12T19:53:00.198Z,0.00
2018-09-12T19:54:00.167Z,0.00
2018-09-12T19:55:00.135Z,0.00
2018-09-12T19:56:00.118Z,0.00
2018-09-12T19:57:00.089Z,0.00
2018-09-12T19:58:00.051Z,0.00
2018-09-12T19:59:00.014Z,0.00
2018-09-12T19:59:59.977Z,0.00
2018-09-12T20:00:59.955Z,0.00
2018-09-12T20:01:59.921Z,0.00
2018-09-12T20:02:59.889Z,0.00
2018-09-12T20:03:59.859Z,0.00
2018-09-12T20:04:59.827Z,0.00
2018-09-12T20:05:59.791Z,0.00
2018-09-12T20:06:59.775Z,0.00
2018-09-12T20:07:59.736Z,0.00
2018-09-12T20:08:59.707Z,0.00
2018-09-12T20:09:59.673Z,0.00
2018-09-12T20:10:59.757Z,0.00
2018-09-12T20:11:59.613Z,0.00
2018-09-12T20:12:59.581Z,0.00
2018-09-12T20:13:59.547Z,0.00
2018-09-12T20:14:59.514Z,0.00
2018-09-12T20:15:59.540Z,0.00
2018-09-12T20:16:59.486Z,0.00
2018-09-12T20:17:59.426Z,0.00
2018-09-12T20:18:59.403Z,0.00
2018-09-12T20:19:59.362Z,0.00
2018-09-12T20:20:59.335Z,0.00
2018-09-12T20:21:59.303Z,0.00
2018-09-12T20:22:59.258Z,0.00
2018-09-12T20:23:59.359Z,0.00
2018-09-12T20:24:59.210Z,0.00
2018-09-12T20:25:59.166Z,0.00
2018-09-12T20:26:59.142Z,0.00
2018-09-12T20:27:59.101Z,0.00
2018-09-12T20:28:59.074Z,0.00
2018-09-12T20:29:59.103Z,0.00
2018-09-12T20:30:59.012Z,0.00
2018-09-12T20:31:58.984Z,0.00
2018-09-12T20:32:58.961Z,0.00
2018-09-12T20:33:58.940Z,0.00
2018-09-12T20:34:58.912Z,0.00
2018-09-12T20:35:58.855Z,0.00
2018-09-12T20:36:58.852Z,0.00
2018-09-12T20:37:58.793Z,0.00
2018-09-12T20:38:58.785Z,0.00
2018-09-12T20:39:58.750Z,0.00
2018-09-12T20:40:58.710Z,0.00
2018-09-12T20:41:58.673Z,0.00
2018-09-12T20:42:58.633Z,0.00
2018-09-12T20:43:58.614Z,0.00
2018-09-12T20:44:58.603Z,0.00
2018-09-12T20:45:58.547Z,0.00
2018-09-12T20:46:58.523Z,0.00
2018-09-12T20:47:58.480Z,0.00
2018-09-12T20:48:58.458Z,0.00
2018-09-12T20:49:58.420Z,0.00
2018-09-12T20:50:58.382Z,0.00
2018-09-12T20:51:58.379Z,0.00
2018-09-12T20:52:58.323Z,0.00
2018-09-12T20:53:58.311Z,0.00
2018-09-12T20:54:58.258Z,0.00
2018-09-12T20:55:58.233Z,0.00
2018-09-12T20:56:58.216Z,0.00
2018-09-12T20:57:58.173Z,0.00
2018-09-12T20:58:58.143Z,0.00
2018-09-12T20:59:58.156Z,0.00
2018-09-12T21:00:58.096Z,0.00
2018-09-12T21:01:58.047Z,0.00
2018-09-12T21:02:58.011Z,0.00
2018-09-12T21:03:57.983Z,0.00
2018-09-12T21:04:57.984Z,0.00
2018-09-12T21:05:57.934Z,0.00
2018-09-12T21:06:57.888Z,0.00
2018-09-12T21:07:57.850Z,0.00
2018-09-12T21:08:57.826Z,0.00
2018-09-12T21:09:57.795Z,0.00
2018-09-12T21:10:58.146Z,0.00
2018-09-12T21:11:57.766Z,0.00
2018-09-12T21:12:57.718Z,0.00
2018-09-12T21:13:57.717Z,0.00
2018-09-12T21:14:57.636Z,0.00
2018-09-12T21:15:57.609Z,0.00
2018-09-12T21:16:57.574Z,0.00
2018-09-12T21:17:57.542Z,0.00
2018-09-12T21:18:57.508Z,0.00
2018-09-12T21:19:57.483Z,0.00
2018-09-12T21:20:57.452Z,0.00
2018-09-12T21:21:57.446Z,0.00
2018-09-12T21:22:57.382Z,0.00
2018-09-12T21:23:57.369Z,0.00
2018-09-12T21:24:57.324Z,0.00
2018-09-12T21:25:57.286Z,0.00
2018-09-12T21:26:57.499Z,0.00
2018-09-12T21:27:57.232Z,0.00
2018-09-12T21:28:57.201Z,0.00
2018-09-12T21:29:57.168Z,0.00
2018-09-12T21:30:57.144Z,0.00
2018-09-12T21:31:57.119Z,0.00
2018-09-12T21:32:57.113Z,0.00
2018-09-12T21:33:57.043Z,0.00
2018-09-12T21:34:57.022Z,0.00
2018-09-12T21:35:56.995Z,0.00
2018-09-12T21:36:56.945Z,0.00
2018-09-12T21:37:56.915Z,0.00
2018-09-12T21:38:56.887Z,0.00
2018-09-12T21:39:56.865Z,0.00
2018-09-12T21:40:56.826Z,0.00
2018-09-12T21:41:56.787Z,0.00
2018-09-12T21:42:56.753Z,0.00
2018-09-12T21:43:56.782Z,0.00
2018-09-12T21:44:56.694Z,0.00
2018-09-12T21:45:56.665Z,0.00
2018-09-12T21:46:56.656Z,0.00
2018-09-12T21:47:56.595Z,0.00
2018-09-12T21:48:56.572Z,0.00
2018-09-12T21:49:56.534Z,0.00
2018-09-12T21:50:56.521Z,0.00
2018-09-12T21:51:56.481Z,0.00
2018-09-12T21:52:56.490Z,0.00
2018-09-12T21:53:56.420Z,0.00
2018-09-12T21:54:56.377Z,0.00
2018-09-12T21:55:56.379Z,0.00
2018-09-12T21:56:56.319Z,0.00
2018-09-12T21:57:56.285Z,0.00
2018-09-12T21:58:56.260Z,0.00
2018-09-12T21:59:56.221Z,0.00
2018-09-12T22:00:56.357Z,0.00
2018-09-12T22:01:56.160Z,0.00
2018-09-12T22:02:56.127Z,0.00
2018-09-12T22:03:56.099Z,0.00
2018-09-12T22:04:56.082Z,0.00
2018-09-12T22:05:56.035Z,0.00
2018-09-12T22:06:56.038Z,0.00
2018-09-12T22:07:56.019Z,0.00
2018-09-12T22:08:55.937Z,0.00
2018-09-12T22:09:55.941Z,0.00
2018-09-12T22:10:55.878Z,0.00
2018-09-12T22:11:55.851Z,0.00
2018-09-12T22:12:55.811Z,0.00
2018-09-12T22:13:55.798Z,0.00
2018-09-12T22:14:55.753Z,0.00
2018-09-12T22:15:55.736Z,0.00
2018-09-12T22:16:55.686Z,0.00
2018-09-12T22:17:55.650Z,0.00
2018-09-12T22:18:55.660Z,0.00
2018-09-12T22:19:55.592Z,0.00
2018-09-12T22:20:55.585Z,0.00
2018-09-12T22:21:55.547Z,0.00
2018-09-12T22:22:55.495Z,0.00
2018-09-12T22:23:55.491Z,0.00
2018-09-12T22:24:55.427Z,0.00
2018-09-12T22:25:55.396Z,0.00
2018-09-12T22:26:55.387Z,0.00
2018-09-12T22:27:55.341Z,0.00
2018-09-12T22:28:55.310Z,0.00
2018-09-12T22:29:55.270Z,0.00
2018-09-12T22:30:55.265Z,0.00
2018-09-12T22:31:55.230Z,0.00
2018-09-12T22:32:55.174Z,0.00
2018-09-12T22:33:55.151Z,0.00
2018-09-12T22:34:55.115Z,0.00
2018-09-12T22:35:55.103Z,0.00
2018-09-12T22:36:55.063Z,0.00
2018-09-12T22:37:55.019Z,0.00
2018-09-12T22:38:55.015Z,0.00
2018-09-12T22:39:55.027Z,0.00
2018-09-12T22:40:54.919Z,0.00
2018-09-12T22:41:54.896Z,0.00
2018-09-12T22:42:54.864Z,0.00
2018-09-12T22:43:54.827Z,0.00
2018-09-12T22:44:54.818Z,0.00
2018-09-12T22:45:54.770Z,0.00
2018-09-12T22:46:54.736Z,0.00
2018-09-12T22:47:54.700Z,0.00
2018-09-12T22:48:54.671Z,0.00
2018-09-12T22:49:54.640Z,0.00
2018-09-12T22:50:54.612Z,0.00
2018-09-12T22:51:54.578Z,0.00
2018-09-12T22:52:54.551Z,0.00
2018-09-12T22:53:55.463Z,0.00
2018-09-12T22:54:54.493Z,0.00
2018-09-12T22:55:54.961Z,0.00
2018-09-12T22:56:54.419Z,0.00
2018-09-12T22:57:55.225Z,0.00
2018-09-12T22:58:54.356Z,0.00
2018-09-12T22:59:54.339Z,0.00
2018-09-12T23:00:54.296Z,0.00
2018-09-12T23:01:54.261Z,0.00
2018-09-12T23:02:54.255Z,0.00
2018-09-12T23:03:54.194Z,0.00
2018-09-12T23:04:54.163Z,0.00
2018-09-12T23:05:54.129Z,0.00
2018-09-12T23:06:54.109Z,0.00
2018-09-12T23:07:54.074Z,0.00
2018-09-12T23:08:54.043Z,0.00
2018-09-12T23:09:54.009Z,0.00
2018-09-12T23:10:53.971Z,0.00
2018-09-12T23:11:53.937Z,0.00
2018-09-12T23:12:53.911Z,0.00
2018-09-12T23:13:53.882Z,0.00
2018-09-12T23:14:53.848Z,0.00
2018-09-12T23:15:53.832Z,0.00
2018-09-12T23:16:53.824Z,0.00
2018-09-12T23:17:53.758Z,0.00
2018-09-12T23:18:53.737Z,0.00
2018-09-12T23:19:53.691Z,0.00
2018-09-12T23:20:53.654Z,0.00
2018-09-12T23:21:53.651Z,0.00
2018-09-12T23:22:53.596Z,0.00
2018-09-12T23:23:53.566Z,0.00
2018-09-12T23:24:53.536Z,0.00
2018-09-12T23:25:53.536Z,0.00
2018-09-12T23:26:53.470Z,0.00
2018-09-12T23:27:53.436Z,0.00
2018-09-12T23:28:53.408Z,0.00
2018-09-12T23:29:53.372Z,0.00
2018-09-12T23:30:53.345Z,0.00
2018-09-12T23:31:53.310Z,0.00
2018-09-12T23:32:53.290Z,0.00
2018-09-12T23:33:53.253Z,0.00
2018-09-12T23:34:53.215Z,0.00
2018-09-12T23:35:53.195Z,0.00
2018-09-12T23:36:53.150Z,0.00
2018-09-12T23:37:53.139Z,0.00
2018-09-12T23:38:53.112Z,0.00
2018-09-12T23:39:53.057Z,0.00
2018-09-12T23:40:53.033Z,0.00
2018-09-12T23:41:52.987Z,0.00
2018-09-12T23:42:52.961Z,0.00
2018-09-12T23:43:52.936Z,0.00
2018-09-12T23:44:52.899Z,0.00
2018-09-12T23:45:52.908Z,0.00
2018-09-12T23:46:52.831Z,0.00
2018-09-12T23:47:52.799Z,0.00
2018-09-12T23:48:52.783Z,0.00
2018-09-12T23:49:52.762Z,0.00
2018-09-12T23:50:52.726Z,0.00
2018-09-12T23:51:52.677Z,0.00
2018-09-12T23:52:52.639Z,0.00
2018-09-12T23:53:52.611Z,0.00
2018-09-12T23:54:52.588Z,0.00
2018-09-12T23:55:52.550Z,0.00
2018-09-12T23:56:52.570Z,0.00
2018-09-12T23:57:52.488Z,0.00
2018-09-12T23:58:52.452Z,0.00
2018-09-12T23:59:52.447Z,0.00
